createdAt,value
2019-04-28T00:04:34.154Z,101088.27
2019-04-28T00:09:41.359Z,101088.86
2019-04-28T00:14:46.767Z,101088.49
2019-04-28T00:19:54.182Z,101085.33
2019-04-28T00:25:04.299Z,101081.77
2019-04-28T00:30:11.758Z,101083.16
2019-04-28T00:35:17.381Z,101083.28
2019-04-28T00:40:22.833Z,101080.80
2019-04-28T00:45:28.335Z,101078.08
2019-04-28T00:50:33.872Z,101077.22
2019-04-28T00:55:39.272Z,101074.18
2019-04-28T01:00:46.519Z,101077.57
2019-04-28T01:05:52.085Z,101078.86
2019-04-28T01:10:57.572Z,101084.02
2019-04-28T01:16:19.394Z,101092.42
2019-04-28T01:21:30.010Z,101089.23
2019-04-28T01:26:35.495Z,101088.16
2019-04-28T01:31:49.407Z,101084.44
2019-04-28T01:36:54.970Z,101085.88
2019-04-28T01:42:00.444Z,101094.98
2019-04-28T01:47:05.939Z,101098.61
2019-04-28T01:52:11.375Z,101101.94
2019-04-28T01:57:16.841Z,101102.30
2019-04-28T02:02:22.311Z,101103.38
2019-04-28T02:07:27.791Z,101101.66
2019-04-28T02:12:33.426Z,101099.62
2019-04-28T02:17:40.180Z,101098.41
2019-04-28T02:22:57.070Z,101101.55
2019-04-28T02:28:02.528Z,101107.34
2019-04-28T02:33:07.977Z,101107.60
2019-04-28T02:38:13.378Z,101106.43
2019-04-28T02:43:20.942Z,101109.80
2019-04-28T02:48:27.303Z,101109.55
2019-04-28T02:53:35.427Z,101112.13
2019-04-28T02:58:41.688Z,101116.52
2019-04-28T03:03:47.313Z,101110.98
2019-04-28T03:08:52.884Z,101114.89
2019-04-28T03:14:00.777Z,101116.66
2019-04-28T03:19:05.484Z,101120.67
2019-04-28T03:24:13.349Z,101120.25
2019-04-28T03:29:26.677Z,101128.59
2019-04-28T03:34:53.043Z,101122.66
2019-04-28T03:39:55.814Z,101130.03
2019-04-28T03:45:02.888Z,101128.11
2019-04-28T03:50:10.486Z,101131.73
2019-04-28T03:55:15.643Z,101132.08
2019-04-28T04:00:21.981Z,101131.97
2019-04-28T04:05:30.432Z,101134.08
2019-04-28T04:10:43.998Z,101138.28
2019-04-28T04:16:07.147Z,101135.41
2019-04-28T04:21:13.067Z,101137.42
2019-04-28T04:26:21.014Z,101137.83
2019-04-28T04:31:25.803Z,101136.90
2019-04-28T04:36:31.388Z,101141.09
2019-04-28T04:41:36.932Z,101147.06
2019-04-28T04:46:42.446Z,101155.70
2019-04-28T04:51:50.680Z,101161.77
2019-04-28T04:56:55.126Z,101168.03
2019-04-28T05:02:29.613Z,101176.22
2019-04-28T05:07:32.757Z,101176.22
2019-04-28T05:12:38.228Z,101183.22
2019-04-28T05:17:43.669Z,101186.25
2019-04-28T05:23:00.272Z,101186.83
2019-04-28T05:28:05.982Z,101190.41
2019-04-28T05:33:13.703Z,101197.98
2019-04-28T05:38:20.144Z,101199.25
2019-04-28T05:43:25.714Z,101198.94
2019-04-28T05:48:52.970Z,101204.88
2019-04-28T05:54:06.666Z,101200.26
2019-04-28T05:59:16.576Z,101194.59
2019-04-28T06:04:25.360Z,101194.22
2019-04-28T06:09:39.741Z,101196.52
2019-04-28T06:14:45.070Z,101200.48
2019-04-28T06:19:50.581Z,101200.48
2019-04-28T06:24:56.038Z,101204.45
2019-04-28T06:30:01.487Z,101208.58
2019-04-28T06:35:07.121Z,101219.51
2019-04-28T06:40:12.596Z,101216.72
2019-04-28T06:45:18.035Z,101222.41
2019-04-28T06:50:23.484Z,101227.47
2019-04-28T06:55:28.920Z,101235.95
2019-04-28T07:00:34.530Z,101229.62
2019-04-28T07:05:40.028Z,101226.40
2019-04-28T07:10:45.673Z,101227.22
2019-04-28T07:15:51.177Z,101221.30
2019-04-28T07:21:21.717Z,101220.26
2019-04-28T07:26:27.231Z,101211.57
2019-04-28T07:31:32.949Z,101200.91
2019-04-28T07:36:38.535Z,101185.66
2019-04-28T07:41:43.999Z,101177.58
2019-04-28T07:46:49.475Z,101174.06
2019-04-28T07:52:06.427Z,101183.33
2019-04-28T07:57:12.337Z,101189.52
2019-04-28T08:02:17.762Z,101203.27
2019-04-28T08:07:23.438Z,101212.52
2019-04-28T08:12:29.270Z,101197.91
2019-04-28T08:17:36.793Z,101180.86
2019-04-28T08:22:42.487Z,101171.17
2019-04-28T08:27:48.428Z,101171.97
2019-04-28T08:33:05.288Z,101185.43
2019-04-28T08:38:10.988Z,101194.22
2019-04-28T08:43:16.449Z,101202.06
2019-04-28T08:48:21.913Z,101216.87
2019-04-28T08:53:27.477Z,101219.58
2019-04-28T08:58:32.919Z,101217.16
2019-04-28T09:03:38.393Z,101217.93
2019-04-28T09:08:44.051Z,101212.87
2019-04-28T09:13:49.589Z,101219.56
2019-04-28T09:18:55.186Z,101234.81
2019-04-28T09:24:00.715Z,101247.41
2019-04-28T09:29:06.403Z,101247.56
2019-04-28T09:34:11.978Z,101255.25
2019-04-28T09:39:19.259Z,101255.13
2019-04-28T09:44:25.010Z,101252.39
2019-04-28T09:49:30.548Z,101250.52
2019-04-28T09:54:36.086Z,101250.70
2019-04-28T09:59:41.673Z,101248.84
2019-04-28T10:04:47.211Z,101241.98
2019-04-28T10:09:52.835Z,101248.30
2019-04-28T10:14:58.297Z,101251.75
2019-04-28T10:20:04.060Z,101254.95
2019-04-28T10:25:09.851Z,101253.88
2019-04-28T10:30:15.609Z,101257.34
2019-04-28T10:35:21.275Z,101252.17
2019-04-28T10:40:42.498Z,101250.44
2019-04-28T10:45:49.460Z,101241.95
2019-04-28T10:50:54.919Z,101243.73
2019-04-28T10:56:00.422Z,101244.86
2019-04-28T11:01:06.011Z,101244.14
2019-04-28T11:06:12.733Z,101246.58
2019-04-28T11:11:24.583Z,101248.23
2019-04-28T11:16:33.739Z,101239.69
2019-04-28T11:21:39.367Z,101243.00
2019-04-28T11:26:46.888Z,101247.12
2019-04-28T11:31:52.566Z,101246.41
2019-04-28T11:36:58.228Z,101241.38
2019-04-28T11:42:03.716Z,101244.62
2019-04-28T11:47:10.909Z,101244.71
2019-04-28T11:52:16.810Z,101248.91
2019-04-28T11:57:22.408Z,101248.02
2019-04-28T12:02:28.147Z,101252.54
2019-04-28T12:07:33.671Z,101248.91
2019-04-28T12:12:58.416Z,101249.09
2019-04-28T12:18:38.116Z,101253.47
2019-04-28T12:23:43.946Z,101252.75
2019-04-28T12:28:49.540Z,101262.95
2019-04-28T12:33:55.009Z,101261.03
2019-04-28T12:39:00.553Z,101272.30
2019-04-28T12:44:06.088Z,101279.53
2019-04-28T12:49:29.098Z,101270.75
2019-04-28T12:54:36.200Z,101275.75
2019-04-28T12:59:46.802Z,101289.71
2019-04-28T13:04:55.689Z,101292.34
2019-04-28T13:10:01.167Z,101304.50
2019-04-28T13:15:06.750Z,101303.83
2019-04-28T13:20:12.186Z,101310.30
2019-04-28T13:25:17.721Z,101320.73
2019-04-28T13:30:23.149Z,101320.37
2019-04-28T13:35:28.677Z,101321.72
2019-04-28T13:40:35.915Z,101329.06
2019-04-28T13:45:41.640Z,101326.36
2019-04-28T13:50:48.959Z,101329.84
2019-04-28T13:56:01.681Z,101331.33
2019-04-28T14:01:24.476Z,101327.12
2019-04-28T14:06:31.435Z,101322.44
2019-04-28T14:11:36.940Z,101327.42
2019-04-28T14:16:42.507Z,101335.31
2019-04-28T14:21:48.053Z,101337.66
2019-04-28T14:26:53.499Z,101339.95
2019-04-28T14:31:59.019Z,101345.91
2019-04-28T14:37:04.802Z,101339.51
2019-04-28T14:42:10.233Z,101347.95
2019-04-28T14:47:15.775Z,101344.09
2019-04-28T14:52:21.234Z,101345.37
2019-04-28T14:57:26.827Z,101348.14
2019-04-28T15:02:53.968Z,101355.04
2019-04-28T15:08:27.043Z,101349.32
2019-04-28T15:13:32.526Z,101351.88
2019-04-28T15:18:38.215Z,101350.72
2019-04-28T15:23:43.721Z,101358.46
2019-04-28T15:28:49.165Z,101361.98
2019-04-28T15:33:54.664Z,101367.14
2019-04-28T15:39:00.196Z,101371.45
2019-04-28T15:44:05.864Z,101366.58
2019-04-28T15:49:11.321Z,101365.93
2019-04-28T15:54:16.976Z,101368.72
2019-04-28T15:59:24.372Z,101370.83
2019-04-28T16:04:29.839Z,101372.56
2019-04-28T16:09:35.483Z,101370.78
2019-04-28T16:14:40.997Z,101363.98
2019-04-28T16:19:46.506Z,101365.00
2019-04-28T16:24:52.021Z,101366.65
2019-04-28T16:29:57.429Z,101366.34
2019-04-28T16:35:02.891Z,101367.70
2019-04-28T16:40:09.582Z,101374.59
2019-04-28T16:45:18.483Z,101378.83
2019-04-28T16:50:23.156Z,101392.00
2019-04-28T16:55:36.012Z,101397.50
2019-04-28T17:01:09.247Z,101407.73
2019-04-28T17:06:14.968Z,101407.52
2019-04-28T17:11:20.408Z,101411.38
2019-04-28T17:16:25.856Z,101417.13
2019-04-28T17:21:31.314Z,101419.47
2019-04-28T17:26:36.743Z,101427.71
2019-04-28T17:31:42.162Z,101426.53
2019-04-28T17:36:47.726Z,101429.10
2019-04-28T17:41:53.272Z,101428.60
2019-04-28T17:46:58.842Z,101444.25
2019-04-28T17:52:04.720Z,101447.70
2019-04-28T17:57:10.167Z,101453.64
2019-04-28T18:02:49.541Z,101462.08
2019-04-28T18:07:59.943Z,101474.52
2019-04-28T18:13:05.544Z,101479.19
2019-04-28T18:18:17.881Z,101495.32
2019-04-28T18:23:23.449Z,101502.52
2019-04-28T18:28:28.868Z,101513.06
2019-04-28T18:34:02.314Z,101514.59
2019-04-28T18:39:25.997Z,101527.45
2019-04-28T18:44:31.551Z,101534.59
2019-04-28T18:49:37.052Z,101532.80
2019-04-28T18:54:42.529Z,101534.19
2019-04-28T18:59:48.219Z,101553.84
2019-04-28T19:04:53.707Z,101565.36
2019-04-28T19:10:05.178Z,101565.45
2019-04-28T19:15:24.604Z,101575.64
2019-04-28T19:20:30.084Z,101583.38
2019-04-28T19:25:35.565Z,101592.06
2019-04-28T19:30:41.492Z,101600.76
2019-04-28T19:35:46.962Z,101604.95
2019-04-28T19:40:52.392Z,101612.13
2019-04-28T19:46:00.095Z,101623.47
2019-04-28T19:51:05.727Z,101626.14
2019-04-28T19:56:33.076Z,101633.37
2019-04-28T20:01:38.624Z,101643.23
2019-04-28T20:06:44.180Z,101645.03
2019-04-28T20:11:49.767Z,101642.88
2019-04-28T20:16:55.288Z,101650.66
2019-04-28T20:22:00.788Z,101650.27
2019-04-28T20:27:06.397Z,101658.89
2019-04-28T20:32:11.802Z,101661.79
2019-04-28T20:37:30.362Z,101660.31
2019-04-28T20:43:02.057Z,101662.83
2019-04-28T20:48:07.793Z,101666.58
2019-04-28T20:53:13.256Z,101671.18
2019-04-28T20:58:18.738Z,101673.91
2019-04-28T21:03:24.165Z,101684.63
2019-04-28T21:08:29.638Z,101681.97
2019-04-28T21:13:35.079Z,101685.32
2019-04-28T21:18:40.520Z,101691.94
2019-04-28T21:23:45.928Z,101691.14
2019-04-28T21:28:51.372Z,101693.75
2019-04-28T21:33:56.841Z,101694.23
2019-04-28T21:39:02.496Z,101703.34
2019-04-28T21:44:17.172Z,101718.50
2019-04-28T21:49:27.611Z,101720.56
2019-04-28T21:54:33.085Z,101715.33
2019-04-28T21:59:38.494Z,101720.57
2019-04-28T22:04:46.759Z,101717.63
2019-04-28T22:09:51.232Z,101722.50
2019-04-28T22:14:56.777Z,101720.56
2019-04-28T22:20:02.252Z,101722.45
2019-04-28T22:25:12.927Z,101720.63
2019-04-28T22:30:18.331Z,101726.90
2019-04-28T22:35:23.765Z,101729.66
2019-04-28T22:40:29.201Z,101729.05
2019-04-28T22:45:34.634Z,101727.41
2019-04-28T22:50:44.279Z,101738.73
2019-04-28T22:55:58.701Z,101742.02
2019-04-28T23:01:21.698Z,101741.56
2019-04-28T23:06:27.366Z,101748.16
2019-04-28T23:11:32.758Z,101762.68
2019-04-28T23:16:38.220Z,101766.80
2019-04-28T23:22:01.221Z,101767.45
2019-04-28T23:27:06.755Z,101772.68
2019-04-28T23:32:12.299Z,101772.98
2019-04-28T23:37:17.774Z,101774.31
2019-04-28T23:42:39.825Z,101781.68
2019-04-28T23:47:45.273Z,101783.22
2019-04-28T23:53:05.346Z,101779.77
2019-04-28T23:58:10.801Z,101778.33
